Stockton, Minnesota
Current Conditions -  °F | °C
As of 2:14 AM on Monday 22 Dec 2014 (Local Time) from KONA Reporting Station
Light Rain Light Rain  
Wind Chill: 32°   Ceiling: 1400
Heat Index: 37°   Visibility: 5mi
Dew Point: 34°   Wind: 7mph
Humidity: 87%   Direction: 160°SSE
Pressure: 29.8"   Gusts: NA
Location:  44.03°N, 91.77°W
Report Text: KONA 220814Z AUTO 16006KT 5SM -RA OVC014 03/01 A2980 RMK AO2
Loading
Personal Weather Stations






























Interactive Weather Map New forecast layout! Learn more

10-Day Weather Forecast

Advertisements
Track Severe Weather on mobile